Shiremoor, United Kingdom
Current Conditions -  °F | °C
As of 4:50 PM on Thursday 23 Oct 2014 (Local Time) from EGNT Reporting Station
Scattered Clouds Scattered Clouds  
Wind Chill: 61°   Ceiling: Unl
Heat Index: 61°   Visibility: 6mi
Dew Point: 54°   Wind: 10mph
Humidity: 77%   Direction: 220°SW
Pressure: 29.77"   Gusts: 22mph
Location:  55.04°N, 1.51°W
Report Text: EGNT 231550Z 22009G19KT 190V250 9999 FEW020 SCT030 16/12 Q1008
Loading
Personal Weather Stations






























Interactive Weather Map
Tropical Storm Tracking
New forecast layout! Learn more

10-Day Weather Forecast

Advertisements
Track Severe Weather on mobile